Terminal Aerodrome Forecast
Issued by NWS

Home | Current Version | Previous Version | Text Only | Print | Product List | Glossary On
Versions: 1 2 3 4 5 6 7 8 9 10 11 12 13 14 15 16 17
000
FTUS45 KGJT 292335
TAFASE
TAF
KASE 292335Z 3000/3024 14009KT P6SM VCTS FEW060CB BKN070
     FM300200 20006KT P6SM SCT250
     FM301600 26005KT P6SM SCT250
     FM301800 31009KT P6SM VCTS SCT090CB BKN150=

USA.gov is the U.S. government's official web portal to all federal, state and local government web resources and services.